createdAt,value
2018-06-08T00:01:51.402Z,4.65
2018-06-08T00:04:19.925Z,4.30
2018-06-08T00:06:48.428Z,5.20
2018-06-08T00:09:16.920Z,5.17
2018-06-08T00:11:46.627Z,4.00
2018-06-08T00:14:15.169Z,4.12
2018-06-08T00:16:43.678Z,5.03
2018-06-08T00:19:12.210Z,5.20
2018-06-08T00:21:40.700Z,5.15
2018-06-08T00:24:09.206Z,5.00
2018-06-08T00:26:37.717Z,4.30
2018-06-08T00:29:06.256Z,5.28
2018-06-08T00:31:34.770Z,5.20
2018-06-08T00:34:03.290Z,5.10
2018-06-08T00:36:31.808Z,4.53
2018-06-08T00:39:00.314Z,4.65
2018-06-08T00:41:28.854Z,5.20
2018-06-08T00:43:57.345Z,5.00
2018-06-08T00:46:25.820Z,5.55
2018-06-08T00:48:54.354Z,8.40
2018-06-08T00:51:22.865Z,8.45
2018-06-08T00:53:51.376Z,7.53
2018-06-08T00:56:31.062Z,5.78
2018-06-08T00:58:59.562Z,5.90
2018-06-08T01:01:28.136Z,7.37
2018-06-08T01:03:56.637Z,7.15
2018-06-08T01:06:25.137Z,7.05
2018-06-08T01:08:53.658Z,8.30
2018-06-08T01:11:22.161Z,7.08
2018-06-08T01:13:50.718Z,8.15
2018-06-08T01:16:19.262Z,7.60
2018-06-08T01:18:47.765Z,7.12
2018-06-08T01:21:16.274Z,7.37
2018-06-08T01:23:44.777Z,8.50
2018-06-08T01:26:13.307Z,7.87
2018-06-08T01:28:41.845Z,7.75
2018-06-08T01:31:10.350Z,6.90
2018-06-08T01:33:38.874Z,7.90
2018-06-08T01:36:07.415Z,8.85
2018-06-08T01:38:35.955Z,7.97
2018-06-08T01:41:04.545Z,7.20
2018-06-08T01:43:33.078Z,7.40
2018-06-08T01:46:01.589Z,8.05
2018-06-08T01:48:30.077Z,7.72
2018-06-08T01:50:58.600Z,7.87
2018-06-08T01:53:27.123Z,7.53
2018-06-08T01:55:55.636Z,8.13
2018-06-08T01:58:24.171Z,8.38
2018-06-08T02:00:52.726Z,8.73
2018-06-08T02:03:21.228Z,7.87
2018-06-08T02:05:49.725Z,7.70
2018-06-08T02:08:18.225Z,7.50
2018-06-08T02:10:46.721Z,8.00
2018-06-08T02:13:15.295Z,8.38
2018-06-08T02:15:43.826Z,7.83
2018-06-08T02:18:12.336Z,8.75
2018-06-08T02:20:41.288Z,7.62
2018-06-08T02:23:09.818Z,7.97
2018-06-08T02:25:38.348Z,8.20
2018-06-08T02:28:06.562Z,8.80
2018-06-08T02:30:35.102Z,6.20
2018-06-08T02:33:03.645Z,8.00
2018-06-08T02:35:32.175Z,8.23
2018-06-08T02:38:00.718Z,7.10
2018-06-08T02:40:29.234Z,7.47
2018-06-08T02:42:57.727Z,7.80
2018-06-08T02:45:26.243Z,6.65
2018-06-08T02:47:54.746Z,7.15
2018-06-08T02:50:23.295Z,8.33
2018-06-08T02:52:51.798Z,7.08
2018-06-08T02:55:20.330Z,7.62
2018-06-08T02:57:48.884Z,7.72
2018-06-08T03:00:17.404Z,7.40
2018-06-08T03:02:45.946Z,8.48
2018-06-08T03:05:14.510Z,7.37
2018-06-08T03:07:43.013Z,7.15
2018-06-08T03:10:11.521Z,8.28
2018-06-08T03:12:40.036Z,7.37
2018-06-08T03:15:08.598Z,7.28
2018-06-08T03:17:37.129Z,6.78
2018-06-08T03:20:05.710Z,7.28
2018-06-08T03:22:34.223Z,7.87
2018-06-08T03:25:02.786Z,8.70
2018-06-08T03:27:30.985Z,7.40
2018-06-08T03:29:59.490Z,8.33
2018-06-08T03:32:28.009Z,7.80
2018-06-08T03:34:56.556Z,8.15
2018-06-08T03:37:25.098Z,8.28
2018-06-08T03:39:53.600Z,8.20
2018-06-08T03:42:22.138Z,8.30
2018-06-08T03:44:50.687Z,8.28
2018-06-08T03:47:19.202Z,9.30
2018-06-08T03:49:47.750Z,8.45
2018-06-08T03:52:16.287Z,9.10
2018-06-08T03:54:44.798Z,8.83
2018-06-08T03:57:13.323Z,9.08
2018-06-08T03:59:41.843Z,8.45
2018-06-08T04:02:10.353Z,8.33
2018-06-08T04:04:38.868Z,9.73
2018-06-08T04:07:07.386Z,9.20
2018-06-08T04:09:35.923Z,10.50
2018-06-08T04:12:04.568Z,9.63
2018-06-08T04:14:33.170Z,9.85
2018-06-08T04:17:01.715Z,9.90
2018-06-08T04:19:30.240Z,8.83
2018-06-08T04:21:58.756Z,9.13
2018-06-08T04:24:27.290Z,9.00
2018-06-08T04:26:55.817Z,11.17
2018-06-08T04:29:24.367Z,12.78
2018-06-08T04:31:52.915Z,12.37
2018-06-08T04:34:21.452Z,11.28
2018-06-08T04:36:49.972Z,10.17
2018-06-08T04:39:18.494Z,10.00
2018-06-08T04:41:47.002Z,9.38
2018-06-08T04:44:15.522Z,9.53
2018-06-08T04:46:44.070Z,9.17
2018-06-08T04:49:12.575Z,9.10
2018-06-08T04:51:41.188Z,8.77
2018-06-08T04:54:09.710Z,10.50
2018-06-08T04:56:38.286Z,9.90
2018-06-08T04:59:06.904Z,9.50
2018-06-08T05:01:35.430Z,9.43
2018-06-08T05:04:03.950Z,9.90
2018-06-08T05:06:32.459Z,8.63
2018-06-08T05:09:00.946Z,8.40
2018-06-08T05:11:29.505Z,9.00
2018-06-08T05:13:58.076Z,9.43
2018-06-08T05:16:26.613Z,9.30
2018-06-08T05:18:55.166Z,9.23
2018-06-08T05:21:23.694Z,9.63
2018-06-08T05:23:52.229Z,9.80
2018-06-08T05:26:20.762Z,9.70
2018-06-08T05:28:49.336Z,9.83
2018-06-08T05:31:17.888Z,10.03
2018-06-08T05:33:46.402Z,9.33
2018-06-08T05:36:14.990Z,9.37
2018-06-08T05:38:43.493Z,9.20
2018-06-08T05:41:12.082Z,9.13
2018-06-08T05:43:40.626Z,9.60
2018-06-08T05:46:09.136Z,9.00
2018-06-08T05:48:37.665Z,9.17
2018-06-08T05:51:06.295Z,9.17
2018-06-08T05:53:34.823Z,9.03
2018-06-08T05:56:03.377Z,9.47
2018-06-08T05:58:31.873Z,9.03
2018-06-08T06:01:00.527Z,8.60
2018-06-08T06:03:29.012Z,9.57
2018-06-08T06:05:57.559Z,9.40
2018-06-08T06:08:26.071Z,9.03
2018-06-08T06:10:54.626Z,9.93
2018-06-08T06:13:23.127Z,8.90
2018-06-08T06:15:51.661Z,8.90
2018-06-08T06:18:20.168Z,8.57
2018-06-08T06:20:48.729Z,8.53
2018-06-08T06:23:17.267Z,9.33
2018-06-08T06:25:45.797Z,8.90
2018-06-08T06:28:14.342Z,8.60
2018-06-08T06:30:42.852Z,8.03
2018-06-08T06:33:11.357Z,8.67
2018-06-08T06:35:39.906Z,8.07
2018-06-08T06:38:08.475Z,8.80
2018-06-08T06:40:36.994Z,8.10
2018-06-08T06:43:05.609Z,8.57
2018-06-08T06:45:34.186Z,7.83
2018-06-08T06:48:02.698Z,8.00
2018-06-08T06:50:31.194Z,7.13
2018-06-08T06:52:59.710Z,7.63
2018-06-08T06:55:28.286Z,7.87
2018-06-08T06:57:56.851Z,7.80
2018-06-08T07:00:25.398Z,7.13
2018-06-08T07:02:54.050Z,7.20
2018-06-08T07:05:22.543Z,8.40
2018-06-08T07:07:51.078Z,7.37
2018-06-08T07:10:19.600Z,7.87
2018-06-08T07:12:48.225Z,8.27
2018-06-08T07:15:16.717Z,7.40
2018-06-08T07:17:45.197Z,7.70
2018-06-08T07:20:13.687Z,8.50
2018-06-08T07:22:42.195Z,7.00
2018-06-08T07:25:10.717Z,6.80
2018-06-08T07:27:39.202Z,7.27
2018-06-08T07:30:07.747Z,7.00
2018-06-08T07:32:36.242Z,6.93
2018-06-08T07:35:04.776Z,6.87
2018-06-08T07:37:33.282Z,6.70
2018-06-08T07:40:01.821Z,6.30
2018-06-08T07:42:30.358Z,6.50
2018-06-08T07:44:58.857Z,6.87
2018-06-08T07:47:27.322Z,6.60
2018-06-08T07:49:55.830Z,6.40
2018-06-08T07:52:24.339Z,6.47
2018-06-08T07:54:52.830Z,6.50
2018-06-08T07:57:21.373Z,6.83
2018-06-08T07:59:49.862Z,6.20
2018-06-08T08:02:18.403Z,6.17
2018-06-08T08:04:46.946Z,7.50
2018-06-08T08:07:15.434Z,6.93
2018-06-08T08:09:43.932Z,5.50
2018-06-08T08:12:12.446Z,6.97
2018-06-08T08:14:40.946Z,6.80
2018-06-08T08:17:09.480Z,6.60
2018-06-08T08:19:37.648Z,6.40
2018-06-08T08:22:06.189Z,6.37
2018-06-08T08:24:34.667Z,5.37
2018-06-08T08:27:03.230Z,6.03
2018-06-08T08:29:31.718Z,5.73
2018-06-08T08:32:00.279Z,5.70
2018-06-08T08:34:28.784Z,6.00
2018-06-08T08:36:57.309Z,5.63
2018-06-08T08:39:25.792Z,5.87
2018-06-08T08:41:54.286Z,5.37
2018-06-08T08:44:22.801Z,6.03
2018-06-08T08:46:51.299Z,5.43
2018-06-08T08:49:19.811Z,5.90
2018-06-08T08:51:48.864Z,5.60
2018-06-08T08:54:17.354Z,5.47
2018-06-08T08:56:45.909Z,6.43
2018-06-08T08:59:14.434Z,5.70
2018-06-08T09:01:42.924Z,5.87
2018-06-08T09:04:11.459Z,6.17
2018-06-08T09:06:40.020Z,5.90
2018-06-08T09:09:08.527Z,6.00
2018-06-08T09:11:37.069Z,5.80
2018-06-08T09:14:05.678Z,6.00
2018-06-08T09:16:34.180Z,5.67
2018-06-08T09:19:02.663Z,5.50
2018-06-08T09:21:31.144Z,5.80
2018-06-08T09:23:59.620Z,5.80
2018-06-08T09:26:28.102Z,5.17
2018-06-08T09:28:56.642Z,5.20
2018-06-08T09:31:25.145Z,5.30
2018-06-08T09:33:53.657Z,5.40
2018-06-08T09:36:22.225Z,5.47
2018-06-08T09:38:50.735Z,5.47
2018-06-08T09:41:19.231Z,5.50
2018-06-08T09:43:47.744Z,6.47
2018-06-08T09:46:16.312Z,6.50
2018-06-08T09:48:44.815Z,6.40
2018-06-08T09:51:13.343Z,5.97
2018-06-08T09:53:41.869Z,6.47
2018-06-08T09:56:10.361Z,6.43
2018-06-08T09:58:38.930Z,6.10
2018-06-08T10:01:07.420Z,6.30
2018-06-08T10:03:35.954Z,6.40
2018-06-08T10:06:04.490Z,6.33
2018-06-08T10:08:32.996Z,6.60
2018-06-08T10:11:01.500Z,6.60
2018-06-08T10:13:29.994Z,6.00
2018-06-08T10:15:58.512Z,6.40
2018-06-08T10:18:27.042Z,6.73
2018-06-08T10:20:55.705Z,6.90
2018-06-08T10:23:24.208Z,5.73
2018-06-08T10:25:52.872Z,6.87
2018-06-08T10:28:21.474Z,6.10
2018-06-08T10:30:50.032Z,5.50
2018-06-08T10:33:18.566Z,6.30
2018-06-08T10:35:47.058Z,6.20
2018-06-08T10:38:15.574Z,5.57
2018-06-08T10:40:44.221Z,5.90
2018-06-08T10:43:12.722Z,6.40
2018-06-08T10:45:41.334Z,5.93
2018-06-08T10:48:10.613Z,5.63
2018-06-08T10:50:39.142Z,5.77
2018-06-08T10:53:07.702Z,6.23
2018-06-08T10:55:36.263Z,6.53
2018-06-08T10:58:04.876Z,6.33
2018-06-08T11:00:33.399Z,5.83
2018-06-08T11:03:01.944Z,5.83
2018-06-08T11:05:30.478Z,5.30
2018-06-08T11:07:58.985Z,5.53
2018-06-08T11:10:27.567Z,5.80
2018-06-08T11:12:56.056Z,5.30
2018-06-08T11:15:24.629Z,6.50
2018-06-08T11:17:53.248Z,5.60
2018-06-08T11:20:22.531Z,5.67
2018-06-08T11:22:51.019Z,5.67
2018-06-08T11:25:19.621Z,5.53
2018-06-08T11:27:48.135Z,5.60
2018-06-08T11:30:16.648Z,5.33
2018-06-08T11:32:45.147Z,6.03
2018-06-08T11:35:13.668Z,5.37
2018-06-08T11:37:42.465Z,5.77
2018-06-08T11:40:11.049Z,5.17
2018-06-08T11:42:39.570Z,5.00
2018-06-08T11:45:08.103Z,5.47
2018-06-08T11:47:36.640Z,5.17
2018-06-08T11:50:05.196Z,5.50
2018-06-08T11:52:33.707Z,5.70
2018-06-08T11:55:02.273Z,5.00
2018-06-08T11:57:30.798Z,5.57
2018-06-08T11:59:59.327Z,5.00
2018-06-08T12:02:27.889Z,6.07
2018-06-08T12:04:56.095Z,5.23
2018-06-08T12:07:24.581Z,6.00
2018-06-08T12:09:53.105Z,5.53
2018-06-08T12:12:21.607Z,5.00
2018-06-08T12:14:50.103Z,5.37
2018-06-08T12:17:18.614Z,4.90
2018-06-08T12:19:47.168Z,5.50
2018-06-08T12:22:15.686Z,5.20
2018-06-08T12:24:44.191Z,5.50
2018-06-08T12:27:12.772Z,5.00
2018-06-08T12:29:41.326Z,5.77
2018-06-08T12:32:09.881Z,5.73
2018-06-08T12:34:38.348Z,5.50
2018-06-08T12:37:06.843Z,5.97
2018-06-08T12:39:35.405Z,5.73
2018-06-08T12:42:03.924Z,5.10
2018-06-08T12:44:32.469Z,5.67
2018-06-08T12:47:00.997Z,5.80
2018-06-08T12:49:29.522Z,4.80
2018-06-08T12:51:58.010Z,6.13
2018-06-08T12:54:26.542Z,4.90
2018-06-08T12:56:55.041Z,5.63
2018-06-08T12:59:23.517Z,5.33
2018-06-08T13:01:52.099Z,5.07
2018-06-08T13:04:20.596Z,5.87
2018-06-08T13:06:49.106Z,5.60
2018-06-08T13:09:17.635Z,6.90
2018-06-08T13:11:46.177Z,5.40
2018-06-08T13:14:14.842Z,6.13
2018-06-08T13:16:43.348Z,5.97
2018-06-08T13:19:11.896Z,5.70
2018-06-08T13:21:40.424Z,6.00
2018-06-08T13:24:08.913Z,6.00
2018-06-08T13:26:37.423Z,6.10
2018-06-08T13:29:06.002Z,5.80
2018-06-08T13:31:34.498Z,5.90
2018-06-08T13:34:03.022Z,5.47
2018-06-08T13:36:31.536Z,6.33
2018-06-08T13:39:00.102Z,5.43
2018-06-08T13:41:28.600Z,5.30
2018-06-08T13:43:57.230Z,6.00
2018-06-08T13:46:48.710Z,5.47
2018-06-08T13:49:17.218Z,5.13
2018-06-08T13:51:45.843Z,6.23
2018-06-08T13:54:14.350Z,5.03
2018-06-08T13:56:42.867Z,5.20
2018-06-08T13:59:11.062Z,5.40
2018-06-08T14:01:39.549Z,5.33
2018-06-08T14:04:08.058Z,5.67
2018-06-08T14:06:37.120Z,5.87
2018-06-08T14:09:06.634Z,4.45
2018-06-08T14:11:35.146Z,5.33
2018-06-08T14:14:04.001Z,6.40
2018-06-08T14:16:32.578Z,5.30
2018-06-08T14:19:01.095Z,5.10
2018-06-08T14:21:29.608Z,5.80
2018-06-08T14:23:58.109Z,6.10
2018-06-08T14:26:26.691Z,6.30
2018-06-08T14:28:55.201Z,5.63
2018-06-08T14:31:23.811Z,5.43
2018-06-08T14:33:52.298Z,5.60
2018-06-08T14:36:20.846Z,5.90
2018-06-08T14:38:49.334Z,5.08
2018-06-08T14:41:17.954Z,5.87
2018-06-08T14:43:46.487Z,5.60
2018-06-08T14:46:15.148Z,5.47
2018-06-08T14:48:43.912Z,6.20
2018-06-08T14:51:12.405Z,5.47
2018-06-08T14:53:41.003Z,5.70
2018-06-08T14:56:09.514Z,5.83
2018-06-08T14:58:38.028Z,6.00
2018-06-08T15:01:06.596Z,5.33
2018-06-08T15:03:35.083Z,5.83
2018-06-08T15:06:03.630Z,6.20
2018-06-08T15:08:32.141Z,6.00
2018-06-08T15:11:00.635Z,5.20
2018-06-08T15:13:29.128Z,5.90
2018-06-08T15:15:57.610Z,5.60
2018-06-08T15:18:26.118Z,5.87
2018-06-08T15:20:54.630Z,5.90
2018-06-08T15:23:23.116Z,5.70
2018-06-08T15:25:51.601Z,5.83
2018-06-08T15:28:20.119Z,5.23
2018-06-08T15:30:48.628Z,5.50
2018-06-08T15:33:17.126Z,5.60
2018-06-08T15:35:45.614Z,5.17
2018-06-08T15:38:14.092Z,5.23
2018-06-08T15:40:42.670Z,5.30
2018-06-08T15:43:11.116Z,5.33
2018-06-08T15:45:39.623Z,5.80
2018-06-08T15:48:08.099Z,4.83
2018-06-08T15:50:36.613Z,5.67
2018-06-08T15:53:05.204Z,5.13
2018-06-08T15:55:33.734Z,5.40
2018-06-08T15:58:02.511Z,5.10
2018-06-08T16:00:31.052Z,4.87
2018-06-08T16:02:59.511Z,5.70
2018-06-08T16:05:28.056Z,5.27
2018-06-08T16:07:56.565Z,5.37
2018-06-08T16:10:25.050Z,6.10
2018-06-08T16:12:53.548Z,4.80
2018-06-08T16:15:22.034Z,5.40
2018-06-08T16:17:50.570Z,5.13
2018-06-08T16:20:19.110Z,4.83
2018-06-08T16:22:47.634Z,4.90
2018-06-08T16:25:16.098Z,5.17
2018-06-08T16:27:44.607Z,4.80
2018-06-08T16:30:13.108Z,5.20
2018-06-08T16:32:41.600Z,5.03
2018-06-08T16:35:10.202Z,5.17
2018-06-08T16:37:38.725Z,4.33
2018-06-08T16:40:07.236Z,4.80
2018-06-08T16:42:35.866Z,5.30
2018-06-08T16:45:04.412Z,4.90
2018-06-08T16:47:32.904Z,4.47
2018-06-08T16:50:01.604Z,4.33
2018-06-08T16:52:30.129Z,4.80
2018-06-08T16:54:58.668Z,4.77
2018-06-08T16:57:27.158Z,5.10
2018-06-08T16:59:55.636Z,4.77
2018-06-08T17:02:24.150Z,5.10
2018-06-08T17:04:52.840Z,4.87
2018-06-08T17:07:21.365Z,5.20
2018-06-08T17:09:49.891Z,4.83
2018-06-08T17:12:18.379Z,5.30
2018-06-08T17:14:46.878Z,4.73
2018-06-08T17:17:15.410Z,4.70
2018-06-08T17:19:43.884Z,4.83
2018-06-08T17:22:12.397Z,4.60
2018-06-08T17:24:40.958Z,4.80
2018-06-08T17:27:09.470Z,4.83
2018-06-08T17:29:38.086Z,5.43
2018-06-08T17:32:06.633Z,4.73
2018-06-08T17:34:35.156Z,4.27
2018-06-08T17:37:03.659Z,4.87
2018-06-08T17:39:32.310Z,4.67
2018-06-08T17:42:00.823Z,4.57
2018-06-08T17:44:29.442Z,5.13
2018-06-08T17:46:58.030Z,4.83
2018-06-08T17:49:26.544Z,4.50
2018-06-08T17:51:55.121Z,4.90
2018-06-08T17:54:23.791Z,5.40
2018-06-08T17:56:52.278Z,4.73
2018-06-08T17:59:20.799Z,5.47
2018-06-08T18:01:49.294Z,5.17
2018-06-08T18:04:17.822Z,5.07
2018-06-08T18:06:46.334Z,5.50
2018-06-08T18:09:14.919Z,4.83
2018-06-08T18:11:43.389Z,5.93
2018-06-08T18:14:11.877Z,5.07
2018-06-08T18:16:40.349Z,5.90
2018-06-08T18:19:08.898Z,5.87
2018-06-08T18:21:37.462Z,6.07
2018-06-08T18:24:06.028Z,5.97
2018-06-08T18:26:34.517Z,5.57
2018-06-08T18:29:03.111Z,5.60
2018-06-08T18:31:31.653Z,5.33
2018-06-08T18:34:00.172Z,5.13
2018-06-08T18:36:28.734Z,4.90
2018-06-08T18:38:57.237Z,4.53
2018-06-08T18:41:25.461Z,5.33
2018-06-08T18:43:53.955Z,5.33
2018-06-08T18:46:22.462Z,4.97
2018-06-08T18:48:51.296Z,5.60
2018-06-08T18:51:19.835Z,5.40
2018-06-08T18:53:48.370Z,5.60
2018-06-08T18:56:16.893Z,5.50
2018-06-08T18:58:45.356Z,5.77
2018-06-08T19:01:13.855Z,5.70
2018-06-08T19:03:42.423Z,6.27
2018-06-08T19:06:10.898Z,6.07
2018-06-08T19:08:39.397Z,5.90
2018-06-08T19:11:07.900Z,6.20
2018-06-08T19:13:36.394Z,5.07
2018-06-08T19:16:04.910Z,5.00
2018-06-08T19:18:33.440Z,6.00
2018-06-08T19:21:01.978Z,6.53
2018-06-08T19:23:30.504Z,6.33
2018-06-08T19:25:59.060Z,6.73
2018-06-08T19:28:27.590Z,5.30
2018-06-08T19:30:56.131Z,6.50
2018-06-08T19:33:24.690Z,5.70
2018-06-08T19:35:53.204Z,5.53
2018-06-08T19:38:21.782Z,5.23
2018-06-08T19:40:50.298Z,5.97
2018-06-08T19:43:18.808Z,5.80
2018-06-08T19:45:47.347Z,5.30
2018-06-08T19:48:15.857Z,5.77
2018-06-08T19:50:44.387Z,5.77
2018-06-08T19:53:12.934Z,5.20
2018-06-08T19:55:41.495Z,4.93
2018-06-08T19:58:11.179Z,6.17
2018-06-08T20:00:39.706Z,5.30
2018-06-08T20:03:09.346Z,5.53
2018-06-08T20:05:37.870Z,6.27
2018-06-08T20:08:06.486Z,5.70
2018-06-08T20:10:34.988Z,6.67
2018-06-08T20:13:03.492Z,6.30
2018-06-08T20:15:32.040Z,5.83
2018-06-08T20:18:00.570Z,6.30
2018-06-08T20:20:29.050Z,5.97
2018-06-08T20:22:57.561Z,6.87
2018-06-08T20:25:26.107Z,6.67
2018-06-08T20:27:54.643Z,7.00
2018-06-08T20:30:23.128Z,6.40
2018-06-08T20:32:51.647Z,6.90
2018-06-08T20:35:20.187Z,6.58
2018-06-08T20:37:48.716Z,6.73
2018-06-08T20:40:17.294Z,6.93
2018-06-08T20:42:45.798Z,6.87
2018-06-08T20:45:14.374Z,6.80
2018-06-08T20:47:42.869Z,6.10
2018-06-08T20:50:11.453Z,6.73
2018-06-08T20:52:39.960Z,5.57
2018-06-08T20:55:08.505Z,5.57
2018-06-08T20:57:37.058Z,6.63
2018-06-08T21:00:05.561Z,5.90
2018-06-08T21:02:34.182Z,6.67
2018-06-08T21:05:02.664Z,6.30
2018-06-08T21:07:31.162Z,7.57
2018-06-08T21:09:59.670Z,6.50
2018-06-08T21:12:28.189Z,6.23
2018-06-08T21:14:56.715Z,6.33
2018-06-08T21:17:25.361Z,5.93
2018-06-08T21:19:53.842Z,6.07
2018-06-08T21:22:22.358Z,6.40
2018-06-08T21:24:50.896Z,7.00
2018-06-08T21:27:19.400Z,6.00
2018-06-08T21:29:47.886Z,6.23
2018-06-08T21:32:16.466Z,7.10
2018-06-08T21:34:44.970Z,6.47
2018-06-08T21:37:13.475Z,6.83
2018-06-08T21:39:41.964Z,6.53
2018-06-08T21:42:10.456Z,6.73
2018-06-08T21:44:38.936Z,6.17
2018-06-08T21:47:07.470Z,6.10
2018-06-08T21:49:35.949Z,5.57
2018-06-08T21:52:04.480Z,6.10
2018-06-08T21:54:33.050Z,6.20
2018-06-08T21:57:01.523Z,7.13
2018-06-08T21:59:30.038Z,7.30
2018-06-08T22:01:58.539Z,7.00
2018-06-08T22:04:27.093Z,7.60
2018-06-08T22:06:55.600Z,6.87
2018-06-08T22:09:24.114Z,6.30
2018-06-08T22:11:52.642Z,7.13
2018-06-08T22:14:21.212Z,7.07
2018-06-08T22:16:49.695Z,6.70
2018-06-08T22:19:18.246Z,6.90
2018-06-08T22:21:46.800Z,6.00
2018-06-08T22:24:15.431Z,6.90
2018-06-08T22:26:43.913Z,6.33
2018-06-08T22:29:12.435Z,6.60
2018-06-08T22:31:40.953Z,6.83
2018-06-08T22:34:09.460Z,7.03
2018-06-08T22:36:38.003Z,7.00
2018-06-08T22:39:07.286Z,7.47
2018-06-08T22:41:35.838Z,7.10
2018-06-08T22:44:04.342Z,7.27
2018-06-08T22:46:32.853Z,6.57
2018-06-08T22:49:01.368Z,6.87
2018-06-08T22:51:29.858Z,7.03
2018-06-08T22:53:58.372Z,7.40
2018-06-08T22:56:27.003Z,7.47
2018-06-08T22:58:55.524Z,7.60
2018-06-08T23:01:24.005Z,7.17
2018-06-08T23:03:52.502Z,8.30
2018-06-08T23:06:21.012Z,7.30
2018-06-08T23:08:49.522Z,9.30
2018-06-08T23:11:18.085Z,8.10
2018-06-08T23:13:46.602Z,8.40
2018-06-08T23:16:15.106Z,8.07
2018-06-08T23:18:43.597Z,8.13
2018-06-08T23:21:12.091Z,7.83
2018-06-08T23:23:40.610Z,8.47
2018-06-08T23:26:09.094Z,7.70
2018-06-08T23:28:37.600Z,8.40
2018-06-08T23:31:06.133Z,7.93
2018-06-08T23:33:34.665Z,8.07
2018-06-08T23:36:03.230Z,8.00
2018-06-08T23:38:31.712Z,8.13
2018-06-08T23:41:00.194Z,8.43
2018-06-08T23:43:28.682Z,9.30
2018-06-08T23:45:57.203Z,8.60
2018-06-08T23:48:25.686Z,8.80
2018-06-08T23:50:54.197Z,7.80
2018-06-08T23:53:22.712Z,7.70
2018-06-08T23:55:51.266Z,7.97
2018-06-08T23:58:19.778Z,8.50
